Time;durP1;ratioP1;P1;durP2;ratioP2;P2;SDS_P1;SDS_P2;PMS_P1;PMS_P2;Temp;Humidity;BMP_temperature;BMP_pressure;BME280_temperature;BME280_humidity;BME280_pressure;Samples;Min_cycle;Max_cycle;Signal;HPM_P1;HPM_P2
2022/03/01 00:00:49;;;;;;;16.80;9.60;;;;;;;;;;5112536;28;20020;-76
2022/03/01 00:03:15;;;;;;;12.82;8.85;;;;;;;;;;5072091;28;20037;-76
2022/03/01 00:05:41;;;;;;;13.18;8.85;;;;;;;;;;5104084;27;20063;-76
2022/03/01 00:08:07;;;;;;;30.17;9.60;;;;;;;;;;5112409;27;20424;-76
2022/03/01 00:10:33;;;;;;;15.70;8.52;;;;;;;;;;5118697;27;20046;-77
2022/03/01 00:12:59;;;;;;;16.58;9.10;;;;;;;;;;5093464;28;20039;-76
2022/03/01 00:15:25;;;;;;;18.75;9.02;;;;;;;;;;5087254;28;20024;-78
2022/03/01 00:17:51;;;;;;;14.50;8.80;;;;;;;;;;5094193;28;20391;-76
2022/03/01 00:20:17;;;;;;;18.73;9.40;;;;;;;;;;5107325;28;20036;-76
2022/03/01 00:22:43;;;;;;;16.95;9.80;;;;;;;;;;5106213;28;20042;-76
2022/03/01 00:25:09;;;;;;;14.98;10.02;;;;;;;;;;5106280;28;20024;-77
2022/03/01 00:27:35;;;;;;;15.98;9.35;;;;;;;;;;5102398;28;20024;-77
2022/03/01 00:30:02;;;;;;;14.02;8.38;;;;;;;;;;5109209;27;20039;-75
2022/03/01 00:32:28;;;;;;;13.80;8.98;;;;;;;;;;5079345;28;20039;-75
2022/03/01 00:34:54;;;;;;;13.88;8.98;;;;;;;;;;5100956;28;20029;-75
2022/03/01 00:37:20;;;;;;;16.58;9.18;;;;;;;;;;5097347;28;20031;-76
2022/03/01 00:39:46;;;;;;;18.55;9.20;;;;;;;;;;5104937;28;20039;-76
2022/03/01 00:42:13;;;;;;;16.75;10.25;;;;;;;;;;5103268;28;20032;-77
2022/03/01 00:44:39;;;;;;;13.13;8.70;;;;;;;;;;5081010;28;20131;-76
2022/03/01 00:47:05;;;;;;;15.10;9.50;;;;;;;;;;5105430;28;20171;-77
2022/03/01 00:49:31;;;;;;;15.25;9.20;;;;;;;;;;5076911;27;20139;-77
2022/03/01 00:51:57;;;;;;;14.35;9.15;;;;;;;;;;5084953;28;20231;-76
2022/03/01 00:54:23;;;;;;;16.42;9.00;;;;;;;;;;5080550;28;20694;-76
2022/03/01 00:56:49;;;;;;;18.27;8.93;;;;;;;;;;5079014;28;20383;-76
2022/03/01 00:59:15;;;;;;;15.82;9.85;;;;;;;;;;5098669;28;20119;-76
2022/03/01 01:01:41;;;;;;;17.02;9.52;;;;;;;;;;5108928;28;20024;-76
2022/03/01 01:04:07;;;;;;;13.68;8.57;;;;;;;;;;5084932;28;20476;-76
2022/03/01 01:06:33;;;;;;;15.18;9.30;;;;;;;;;;5106991;27;20398;-76
2022/03/01 01:08:59;;;;;;;14.57;9.35;;;;;;;;;;5094222;28;20090;-76
2022/03/01 01:11:25;;;;;;;14.75;9.00;;;;;;;;;;5100993;28;20131;-76
2022/03/01 01:13:51;;;;;;;13.00;8.30;;;;;;;;;;5093256;28;20039;-75
2022/03/01 01:16:17;;;;;;;17.60;10.15;;;;;;;;;;5099779;28;20020;-75
2022/03/01 01:18:43;;;;;;;15.60;9.65;;;;;;;;;;5097504;28;20036;-75
2022/03/01 01:21:13;;;;;;;17.98;10.00;;;;;;;;;;5099718;28;20039;-75
2022/03/01 01:23:41;;;;;;;16.83;9.65;;;;;;;;;;5100099;28;20120;-75
2022/03/01 01:26:07;;;;;;;17.55;10.50;;;;;;;;;;5095219;28;20047;-76
2022/03/01 01:28:33;;;;;;;15.15;9.05;;;;;;;;;;5099446;28;20030;-76
2022/03/01 01:30:59;;;;;;;15.27;9.13;;;;;;;;;;5102100;28;20513;-75
2022/03/01 01:33:25;;;;;;;13.88;9.23;;;;;;;;;;5103149;27;20570;-75
2022/03/01 01:35:51;;;;;;;18.65;9.32;;;;;;;;;;5104714;28;20032;-76
2022/03/01 01:38:17;;;;;;;17.33;10.13;;;;;;;;;;5075924;28;20050;-76
2022/03/01 01:40:44;;;;;;;18.65;9.27;;;;;;;;;;5102386;27;20574;-76
2022/03/01 01:43:10;;;;;;;16.90;9.93;;;;;;;;;;5104594;28;20020;-75
2022/03/01 01:45:36;;;;;;;19.45;10.23;;;;;;;;;;5110730;28;20035;-75
2022/03/01 01:48:02;;;;;;;18.63;10.18;;;;;;;;;;5105402;27;20040;-75
2022/03/01 01:50:30;;;;;;;14.90;9.27;;;;;;;;;;5106413;28;20039;-74
2022/03/01 01:52:57;;;;;;;19.05;10.32;;;;;;;;;;5097664;28;20469;-75
2022/03/01 01:55:24;;;;;;;18.27;9.27;;;;;;;;;;5099395;27;20039;-74
2022/03/01 01:57:50;;;;;;;16.52;9.65;;;;;;;;;;5092906;28;20069;-74
2022/03/01 02:00:17;;;;;;;18.90;9.80;;;;;;;;;;5104034;28;20043;-75
2022/03/01 02:02:43;;;;;;;17.58;10.02;;;;;;;;;;5091785;28;20028;-75
2022/03/01 02:05:10;;;;;;;19.20;9.60;;;;;;;;;;5100358;28;20095;-75
2022/03/01 02:07:36;;;;;;;16.60;9.88;;;;;;;;;;5100493;28;20537;-75
2022/03/01 02:10:03;;;;;;;18.75;10.40;;;;;;;;;;5097557;28;20028;-76
2022/03/01 02:12:29;;;;;;;16.88;9.93;;;;;;;;;;5102129;28;20395;-75
2022/03/01 02:14:55;;;;;;;16.75;9.98;;;;;;;;;;5095403;28;20507;-75
2022/03/01 02:17:21;;;;;;;16.75;9.63;;;;;;;;;;5096285;28;20468;-76
2022/03/01 02:19:50;;;;;;;17.98;9.80;;;;;;;;;;5107519;28;20529;-75
2022/03/01 02:22:17;;;;;;;19.50;10.25;;;;;;;;;;5091342;28;20067;-75
2022/03/01 02:24:43;;;;;;;18.90;9.95;;;;;;;;;;5096468;28;20038;-75
2022/03/01 02:27:09;;;;;;;17.75;10.02;;;;;;;;;;5103813;28;20100;-76
2022/03/01 02:29:35;;;;;;;15.65;9.38;;;;;;;;;;5080306;28;20047;-75
2022/03/01 02:32:05;;;;;;;15.73;9.38;;;;;;;;;;5099761;28;20636;-75
2022/03/01 02:34:31;;;;;;;14.85;10.07;;;;;;;;;;5107124;28;20073;-76
2022/03/01 02:36:58;;;;;;;14.02;9.88;;;;;;;;;;5100921;28;20024;-76
2022/03/01 02:39:24;;;;;;;17.08;9.90;;;;;;;;;;5099720;28;20452;-75
2022/03/01 02:41:50;;;;;;;17.45;9.57;;;;;;;;;;5093991;28;20066;-75
2022/03/01 02:44:17;;;;;;;15.23;10.20;;;;;;;;;;5098149;28;20028;-75
2022/03/01 02:46:43;;;;;;;14.77;9.48;;;;;;;;;;5104573;28;20022;-75
2022/03/01 02:49:09;;;;;;;18.85;9.32;;;;;;;;;;5083370;28;20055;-77
2022/03/01 02:51:36;;;;;;;16.33;10.20;;;;;;;;;;5107069;28;20123;-76
2022/03/01 02:54:02;;;;;;;19.60;10.38;;;;;;;;;;5098071;28;20074;-76
2022/03/01 02:56:29;;;;;;;18.70;9.60;;;;;;;;;;5109392;28;20050;-75
2022/03/01 02:58:55;;;;;;;13.82;9.57;;;;;;;;;;5091893;28;20066;-75
2022/03/01 03:01:22;;;;;;;17.27;10.00;;;;;;;;;;5101091;28;20050;-75
2022/03/01 03:03:48;;;;;;;17.77;9.50;;;;;;;;;;5094362;28;20399;-75
2022/03/01 03:06:14;;;;;;;17.85;9.63;;;;;;;;;;5099568;28;20027;-76
2022/03/01 03:08:40;;;;;;;15.55;9.25;;;;;;;;;;5107810;28;20382;-75
2022/03/01 03:11:07;;;;;;;18.10;10.35;;;;;;;;;;5097450;28;20520;-75
2022/03/01 03:13:33;;;;;;;17.58;10.02;;;;;;;;;;5101130;28;20111;-76
2022/03/01 03:16:00;;;;;;;19.60;10.60;;;;;;;;;;5097023;28;20021;-76
2022/03/01 03:18:26;;;;;;;14.73;9.43;;;;;;;;;;5095737;28;20024;-78
2022/03/01 03:20:52;;;;;;;20.45;10.38;;;;;;;;;;5097156;28;20403;-75
2022/03/01 03:23:18;;;;;;;15.52;10.13;;;;;;;;;;5095782;28;20035;-76
2022/03/01 03:25:44;;;;;;;20.48;10.32;;;;;;;;;;5102934;28;20086;-75
2022/03/01 03:28:10;;;;;;;17.52;9.82;;;;;;;;;;5098419;28;20029;-75
2022/03/01 03:30:36;;;;;;;16.38;9.57;;;;;;;;;;5105441;27;20040;-76
2022/03/01 03:33:02;;;;;;;17.65;10.30;;;;;;;;;;5102459;27;20028;-76
2022/03/01 03:35:28;;;;;;;20.67;9.85;;;;;;;;;;5099472;28;20031;-75
2022/03/01 03:37:54;;;;;;;17.77;9.77;;;;;;;;;;5103347;28;20035;-75
2022/03/01 03:40:21;;;;;;;17.15;10.13;;;;;;;;;;5095061;28;20027;-75
2022/03/01 03:42:47;;;;;;;17.48;10.15;;;;;;;;;;5100726;28;20055;-74
2022/03/01 03:45:13;;;;;;;15.75;9.35;;;;;;;;;;5104947;27;20029;-74
2022/03/01 03:47:40;;;;;;;16.23;9.80;;;;;;;;;;5106310;28;20028;-75
2022/03/01 03:50:11;;;;;;;14.45;9.90;;;;;;;;;;5100899;28;20483;-75
2022/03/01 03:52:38;;;;;;;18.55;10.50;;;;;;;;;;5105265;28;20028;-75
2022/03/01 03:55:05;;;;;;;15.55;9.32;;;;;;;;;;5096840;27;20032;-75
2022/03/01 03:57:32;;;;;;;17.77;11.55;;;;;;;;;;5089249;28;20552;-75
2022/03/01 03:59:58;;;;;;;17.77;9.82;;;;;;;;;;5113213;28;20032;-76
2022/03/01 04:02:24;;;;;;;18.67;11.18;;;;;;;;;;5101209;27;20036;-75
2022/03/01 04:04:50;;;;;;;17.00;10.57;;;;;;;;;;5095876;28;20103;-75
2022/03/01 04:07:17;;;;;;;17.70;11.30;;;;;;;;;;5099529;28;20582;-75
2022/03/01 04:09:43;;;;;;;20.23;10.65;;;;;;;;;;5103091;28;20027;-75
2022/03/01 04:12:10;;;;;;;20.65;10.20;;;;;;;;;;5083762;28;20032;-75
2022/03/01 04:14:36;;;;;;;17.90;11.02;;;;;;;;;;5100033;28;20063;-75
2022/03/01 04:17:02;;;;;;;15.98;9.00;;;;;;;;;;5105667;28;20040;-76
2022/03/01 04:19:28;;;;;;;17.50;10.40;;;;;;;;;;5105763;27;20031;-76
2022/03/01 04:21:55;;;;;;;19.40;10.40;;;;;;;;;;5105923;28;20028;-76
2022/03/01 04:24:21;;;;;;;22.75;10.70;;;;;;;;;;5091428;28;20032;-76
2022/03/01 04:26:47;;;;;;;16.10;10.10;;;;;;;;;;5103163;27;20036;-75
2022/03/01 04:29:13;;;;;;;18.80;10.82;;;;;;;;;;5100935;27;20115;-75
2022/03/01 04:31:40;;;;;;;19.20;10.23;;;;;;;;;;5097146;27;20108;-75
2022/03/01 04:34:06;;;;;;;16.77;10.35;;;;;;;;;;5099971;28;20023;-75
2022/03/01 04:36:32;;;;;;;19.38;11.27;;;;;;;;;;5098988;28;20035;-75
2022/03/01 04:38:58;;;;;;;19.35;11.15;;;;;;;;;;5101509;28;20559;-75
2022/03/01 04:41:24;;;;;;;21.15;10.43;;;;;;;;;;5085918;28;20421;-76
2022/03/01 04:43:51;;;;;;;26.42;11.90;;;;;;;;;;5095142;28;20039;-75
2022/03/01 04:46:18;;;;;;;19.20;11.05;;;;;;;;;;5100229;27;20039;-75
2022/03/01 04:48:44;;;;;;;15.82;9.90;;;;;;;;;;5096035;28;20070;-75
2022/03/01 04:51:10;;;;;;;16.85;9.90;;;;;;;;;;5098931;28;20039;-75
2022/03/01 04:53:36;;;;;;;18.77;9.57;;;;;;;;;;5104867;28;20031;-75
2022/03/01 04:56:02;;;;;;;17.45;10.43;;;;;;;;;;5099451;28;20046;-75
2022/03/01 04:58:28;;;;;;;18.77;10.40;;;;;;;;;;5103020;28;20061;-77
2022/03/01 05:00:55;;;;;;;23.17;10.38;;;;;;;;;;5100734;28;20038;-76
2022/03/01 05:03:22;;;;;;;19.77;10.75;;;;;;;;;;5100562;27;20027;-77
2022/03/01 05:05:48;;;;;;;18.08;10.93;;;;;;;;;;5110567;28;20055;-76
2022/03/01 05:08:14;;;;;;;19.60;11.13;;;;;;;;;;5092748;28;20066;-76
2022/03/01 05:10:40;;;;;;;16.33;10.73;;;;;;;;;;5098608;28;20031;-76
2022/03/01 05:13:06;;;;;;;17.35;10.80;;;;;;;;;;5102565;28;20039;-75
2022/03/01 05:15:32;;;;;;;17.70;10.45;;;;;;;;;;5105782;28;20027;-76
2022/03/01 05:17:59;;;;;;;17.58;11.43;;;;;;;;;;5102292;28;20031;-76
2022/03/01 05:20:26;;;;;;;18.52;9.43;;;;;;;;;;5074919;28;20046;-75
2022/03/01 05:22:53;;;;;;;18.33;10.63;;;;;;;;;;5103346;28;20043;-75
2022/03/01 05:25:20;;;;;;;18.15;11.15;;;;;;;;;;5099442;28;20034;-75
2022/03/01 05:27:47;;;;;;;15.88;10.32;;;;;;;;;;5100998;27;20061;-75
2022/03/01 05:30:14;;;;;;;20.00;11.02;;;;;;;;;;5092460;28;20029;-75
2022/03/01 05:32:42;;;;;;;19.58;10.80;;;;;;;;;;5101289;28;20065;-75
2022/03/01 05:35:13;;;;;;;22.55;11.10;;;;;;;;;;5102566;28;20526;-75
2022/03/01 05:37:39;;;;;;;16.73;10.27;;;;;;;;;;5098439;28;20042;-75
2022/03/01 05:40:06;;;;;;;15.82;10.32;;;;;;;;;;5097669;27;20127;-75
2022/03/01 05:42:33;;;;;;;25.63;11.90;;;;;;;;;;5101325;27;20532;-76
2022/03/01 05:45:02;;;;;;;17.65;10.48;;;;;;;;;;5092725;28;20040;-75
2022/03/01 05:47:28;;;;;;;17.52;10.45;;;;;;;;;;5098418;28;20028;-77
2022/03/01 05:49:54;;;;;;;18.75;10.18;;;;;;;;;;5094994;28;20632;-76
2022/03/01 05:52:21;;;;;;;21.00;11.35;;;;;;;;;;5108827;28;20251;-75
2022/03/01 05:54:47;;;;;;;22.73;10.93;;;;;;;;;;5088817;28;20092;-75
2022/03/01 05:57:13;;;;;;;22.40;11.82;;;;;;;;;;5097552;28;20031;-75
2022/03/01 05:59:39;;;;;;;16.00;10.35;;;;;;;;;;5085826;28;20058;-76
2022/03/01 06:02:05;;;;;;;18.92;11.18;;;;;;;;;;5107602;27;20365;-76
2022/03/01 06:04:31;;;;;;;20.30;12.10;;;;;;;;;;5080820;28;20185;-76
2022/03/01 06:06:57;;;;;;;18.90;11.60;;;;;;;;;;5102948;28;20032;-77
2022/03/01 06:09:23;;;;;;;18.15;10.85;;;;;;;;;;5102786;28;20032;-76
2022/03/01 06:11:49;;;;;;;20.02;11.43;;;;;;;;;;5106171;28;20030;-76
2022/03/01 06:14:16;;;;;;;17.85;10.88;;;;;;;;;;5111459;28;20080;-76
2022/03/01 06:16:44;;;;;;;18.60;11.02;;;;;;;;;;5095508;28;20484;-75
2022/03/01 06:19:11;;;;;;;17.50;10.88;;;;;;;;;;5104030;28;20126;-75
2022/03/01 06:21:37;;;;;;;19.83;11.30;;;;;;;;;;5091684;28;20062;-74
2022/03/01 06:24:04;;;;;;;19.08;11.32;;;;;;;;;;5094578;28;20020;-76
2022/03/01 06:26:30;;;;;;;36.33;19.65;;;;;;;;;;5095264;28;20016;-75
2022/03/01 06:28:56;;;;;;;21.98;12.82;;;;;;;;;;5082081;28;20028;-72
2022/03/01 06:31:22;;;;;;;19.27;12.55;;;;;;;;;;5100541;28;20031;-75
2022/03/01 06:33:48;;;;;;;18.10;10.48;;;;;;;;;;5109090;28;20356;-75
2022/03/01 06:36:14;;;;;;;19.40;10.88;;;;;;;;;;5099382;28;20036;-75
2022/03/01 06:38:40;;;;;;;19.23;10.68;;;;;;;;;;5100474;28;20016;-76
2022/03/01 06:41:06;;;;;;;20.75;11.18;;;;;;;;;;5109627;28;20128;-76
2022/03/01 06:43:32;;;;;;;19.95;11.43;;;;;;;;;;5105563;28;20036;-75
2022/03/01 06:45:58;;;;;;;17.38;10.30;;;;;;;;;;5091339;28;20035;-73
2022/03/01 06:48:24;;;;;;;19.88;11.90;;;;;;;;;;5093148;28;20525;-74
2022/03/01 06:50:51;;;;;;;18.17;10.48;;;;;;;;;;5099943;28;20032;-74
2022/03/01 06:53:17;;;;;;;42.50;20.70;;;;;;;;;;5099675;28;20110;-74
2022/03/01 06:55:43;;;;;;;54.70;30.85;;;;;;;;;;5099714;28;20032;-73
2022/03/01 06:58:10;;;;;;;18.00;11.60;;;;;;;;;;5094522;28;20027;-74
2022/03/01 07:00:36;;;;;;;19.90;11.50;;;;;;;;;;5104832;27;20039;-75
2022/03/01 07:03:02;;;;;;;17.50;10.90;;;;;;;;;;5106893;27;20112;-76
2022/03/01 07:05:28;;;;;;;23.70;10.68;;;;;;;;;;5113441;28;20020;-76
2022/03/01 07:07:54;;;;;;;18.80;11.82;;;;;;;;;;5107567;28;20032;-74
2022/03/01 07:10:21;;;;;;;20.77;10.52;;;;;;;;;;5113334;28;20679;-74
2022/03/01 07:12:48;;;;;;;17.65;10.65;;;;;;;;;;5090192;28;20437;-74
2022/03/01 07:15:14;;;;;;;19.20;11.32;;;;;;;;;;5100566;27;20471;-73
2022/03/01 07:17:40;;;;;;;18.73;11.00;;;;;;;;;;5105857;28;20080;-73
2022/03/01 07:20:11;;;;;;;21.50;12.15;;;;;;;;;;5108229;28;20111;-73
2022/03/01 07:22:37;;;;;;;20.85;11.32;;;;;;;;;;5107896;28;20035;-74
2022/03/01 07:25:03;;;;;;;22.40;10.80;;;;;;;;;;5105861;28;20023;-74
2022/03/01 07:27:29;;;;;;;19.40;12.05;;;;;;;;;;5109640;28;20387;-75
2022/03/01 07:29:55;;;;;;;17.98;11.05;;;;;;;;;;5098032;28;20133;-73
2022/03/01 07:32:21;;;;;;;16.50;10.93;;;;;;;;;;5102896;27;20036;-73
2022/03/01 07:34:47;;;;;;;18.52;11.38;;;;;;;;;;5108179;28;20051;-74
2022/03/01 07:37:14;;;;;;;25.17;11.70;;;;;;;;;;5105782;28;20639;-74
2022/03/01 07:39:40;;;;;;;18.02;11.57;;;;;;;;;;5113558;28;20038;-75
2022/03/01 07:42:06;;;;;;;26.63;16.13;;;;;;;;;;5099227;28;20023;-75
2022/03/01 07:44:36;;;;;;;20.55;13.48;;;;;;;;;;5107840;28;20096;-74
2022/03/01 07:47:03;;;;;;;15.95;11.85;;;;;;;;;;5099501;28;20020;-75
2022/03/01 07:49:29;;;;;;;22.83;12.32;;;;;;;;;;5098670;28;20056;-74
2022/03/01 07:51:55;;;;;;;17.95;11.50;;;;;;;;;;5108270;28;20034;-74
2022/03/01 07:54:21;;;;;;;21.80;10.73;;;;;;;;;;5108739;28;20368;-74
2022/03/01 07:56:47;;;;;;;21.02;12.35;;;;;;;;;;5106720;28;20043;-74
2022/03/01 07:59:13;;;;;;;21.35;10.82;;;;;;;;;;5110694;28;20423;-73
2022/03/01 08:01:39;;;;;;;23.33;13.15;;;;;;;;;;5104592;27;20111;-73
2022/03/01 08:04:05;;;;;;;32.13;17.05;;;;;;;;;;5107464;28;20032;-72
2022/03/01 08:06:31;;;;;;;37.75;21.30;;;;;;;;;;5103671;28;20019;-77
2022/03/01 08:08:57;;;;;;;17.25;11.80;;;;;;;;;;5102927;28;20482;-74
2022/03/01 08:11:23;;;;;;;18.85;11.95;;;;;;;;;;5096110;28;20120;-75
2022/03/01 08:13:49;;;;;;;28.13;13.48;;;;;;;;;;5098469;27;20032;-75
2022/03/01 08:16:16;;;;;;;18.35;11.60;;;;;;;;;;5101207;28;20039;-75
2022/03/01 08:18:42;;;;;;;20.98;11.93;;;;;;;;;;5109333;28;20031;-74
2022/03/01 08:21:09;;;;;;;18.85;11.70;;;;;;;;;;5099295;28;20039;-73
2022/03/01 08:23:36;;;;;;;20.70;11.48;;;;;;;;;;5106580;28;20032;-74
2022/03/01 08:26:04;;;;;;;19.90;12.00;;;;;;;;;;5096229;28;20028;-74
2022/03/01 08:28:30;;;;;;;18.48;11.77;;;;;;;;;;5082742;28;20054;-73
2022/03/01 08:30:56;;;;;;;19.83;12.00;;;;;;;;;;5104259;28;20478;-74
2022/03/01 08:33:24;;;;;;;17.42;10.85;;;;;;;;;;5100376;28;20425;-74
2022/03/01 08:35:50;;;;;;;21.50;13.20;;;;;;;;;;5095644;28;20045;-74
2022/03/01 08:38:17;;;;;;;19.20;11.43;;;;;;;;;;5108790;28;20036;-74
2022/03/01 08:40:43;;;;;;;19.17;12.23;;;;;;;;;;5105805;28;20479;-74
2022/03/01 08:43:10;;;;;;;20.15;11.27;;;;;;;;;;5107987;27;20035;-74
2022/03/01 08:45:36;;;;;;;19.33;11.52;;;;;;;;;;5107023;28;20019;-75
2022/03/01 08:48:03;;;;;;;14.70;10.73;;;;;;;;;;5100894;28;20031;-74
2022/03/01 08:50:29;;;;;;;17.92;11.60;;;;;;;;;;5080724;28;20028;-74
2022/03/01 08:52:56;;;;;;;21.77;12.57;;;;;;;;;;5103353;27;20031;-75
2022/03/01 08:55:22;;;;;;;16.13;11.40;;;;;;;;;;5103443;28;20020;-74
2022/03/01 08:57:48;;;;;;;19.60;11.15;;;;;;;;;;5100757;28;20024;-76
2022/03/01 09:00:15;;;;;;;29.10;15.75;;;;;;;;;;5105893;28;20039;-76
2022/03/01 09:02:41;;;;;;;17.00;11.52;;;;;;;;;;5110185;28;20050;-75
2022/03/01 09:05:08;;;;;;;20.73;12.35;;;;;;;;;;5102131;28;20028;-75
2022/03/01 09:07:34;;;;;;;19.48;11.38;;;;;;;;;;5094576;28;20028;-75
2022/03/01 09:10:00;;;;;;;17.83;11.43;;;;;;;;;;5105494;28;20364;-75
2022/03/01 09:12:27;;;;;;;18.80;11.65;;;;;;;;;;5109093;28;20023;-74
2022/03/01 09:14:53;;;;;;;20.65;12.05;;;;;;;;;;5080642;28;20060;-75
2022/03/01 09:17:19;;;;;;;18.65;11.68;;;;;;;;;;5105413;28;20101;-74
2022/03/01 09:19:46;;;;;;;18.15;11.40;;;;;;;;;;5092305;28;20047;-75
2022/03/01 09:22:12;;;;;;;20.30;11.65;;;;;;;;;;5098773;28;20036;-74
2022/03/01 09:24:39;;;;;;;19.48;12.43;;;;;;;;;;5092696;28;20035;-74
2022/03/01 09:27:05;;;;;;;19.17;11.70;;;;;;;;;;5101456;27;20121;-74
2022/03/01 09:29:31;;;;;;;18.27;11.25;;;;;;;;;;5087148;28;20119;-73
2022/03/01 09:31:58;;;;;;;19.63;11.88;;;;;;;;;;5103571;28;20372;-73
2022/03/01 09:34:24;;;;;;;20.88;11.07;;;;;;;;;;5105832;28;20024;-73
2022/03/01 09:36:51;;;;;;;18.55;10.80;;;;;;;;;;5088221;28;20027;-73
2022/03/01 09:39:17;;;;;;;20.88;11.52;;;;;;;;;;5107560;28;20028;-72
2022/03/01 09:41:43;;;;;;;20.98;13.25;;;;;;;;;;5093281;28;20108;-72
2022/03/01 09:44:10;;;;;;;17.70;11.80;;;;;;;;;;5078200;28;20044;-73
2022/03/01 09:46:38;;;;;;;17.25;12.15;;;;;;;;;;5086881;28;20024;-75
2022/03/01 09:49:05;;;;;;;17.02;12.10;;;;;;;;;;5085878;27;20048;-73
2022/03/01 09:51:32;;;;;;;44.17;24.42;;;;;;;;;;5104518;28;20372;-74
2022/03/01 09:53:58;;;;;;;24.88;15.45;;;;;;;;;;5106217;28;20463;-73
2022/03/01 09:56:24;;;;;;;20.63;13.32;;;;;;;;;;5096985;27;20467;-71
2022/03/01 09:58:51;;;;;;;21.50;11.70;;;;;;;;;;5101606;27;20100;-73
2022/03/01 10:01:18;;;;;;;19.95;12.98;;;;;;;;;;5109695;28;20115;-73
2022/03/01 10:03:48;;;;;;;19.63;13.27;;;;;;;;;;5103554;28;20032;-73
2022/03/01 10:06:15;;;;;;;18.98;12.43;;;;;;;;;;5101803;28;20026;-74
2022/03/01 10:08:41;;;;;;;18.02;11.85;;;;;;;;;;5109793;28;20028;-74
2022/03/01 10:11:08;;;;;;;18.60;11.55;;;;;;;;;;5080037;28;20049;-73
2022/03/01 10:13:36;;;;;;;17.10;12.02;;;;;;;;;;5083107;28;20131;-74
2022/03/01 10:16:03;;;;;;;19.42;11.60;;;;;;;;;;5101657;28;20024;-73
2022/03/01 10:18:37;;;;;;;18.95;11.85;;;;;;;;;;5102456;28;20019;-73
2022/03/01 10:21:06;;;;;;;19.20;12.60;;;;;;;;;;5090111;28;20502;-73
2022/03/01 10:23:32;;;;;;;21.30;12.60;;;;;;;;;;5100522;28;20468;-73
2022/03/01 10:26:10;;;;;;;20.05;13.43;;;;;;;;;;5090273;28;20023;-73
2022/03/01 10:28:39;;;;;;;23.20;15.40;;;;;;;;;;5096990;28;20298;-74
2022/03/01 10:31:25;;;;;;;22.63;14.70;;;;;;;;;;5099453;28;20405;-74
2022/03/01 10:34:11;;;;;;;21.73;13.50;;;;;;;;;;5103410;28;20051;-74
2022/03/01 10:36:41;;;;;;;36.53;18.35;;;;;;;;;;5105959;28;20544;-74
2022/03/01 10:39:12;;;;;;;20.70;12.70;;;;;;;;;;5106321;28;20069;-74
2022/03/01 10:41:40;;;;;;;21.73;12.45;;;;;;;;;;5084862;28;20024;-74
2022/03/01 10:44:06;;;;;;;17.73;11.25;;;;;;;;;;5100808;28;20024;-74
2022/03/01 10:46:38;;;;;;;21.42;13.38;;;;;;;;;;5084474;28;20052;-74
2022/03/01 10:49:10;;;;;;;21.25;13.15;;;;;;;;;;5108120;28;20078;-73
2022/03/01 10:51:52;;;;;;;21.88;12.75;;;;;;;;;;5082601;28;20082;-76
2022/03/01 10:54:24;;;;;;;34.88;20.27;;;;;;;;;;5085608;28;20393;-76
2022/03/01 10:56:51;;;;;;;19.30;13.40;;;;;;;;;;5071919;28;20048;-74
2022/03/01 10:59:18;;;;;;;20.23;12.80;;;;;;;;;;5068406;28;20092;-75
2022/03/01 11:01:44;;;;;;;22.83;13.27;;;;;;;;;;5085543;28;20028;-75
2022/03/01 11:04:11;;;;;;;19.42;13.00;;;;;;;;;;5061003;28;20021;-73
2022/03/01 11:06:37;;;;;;;22.15;13.73;;;;;;;;;;5062710;28;20032;-75
2022/03/01 11:09:05;;;;;;;24.20;13.23;;;;;;;;;;5084082;28;20039;-74
2022/03/01 11:11:32;;;;;;;19.73;11.90;;;;;;;;;;5086815;28;20032;-75
2022/03/01 11:13:58;;;;;;;21.38;13.75;;;;;;;;;;5086124;28;20036;-75
2022/03/01 11:16:36;;;;;;;23.35;13.13;;;;;;;;;;5081290;28;20028;-74
2022/03/01 11:19:18;;;;;;;25.67;14.82;;;;;;;;;;5082124;28;20087;-74
2022/03/01 11:21:45;;;;;;;22.90;13.70;;;;;;;;;;5069618;28;20097;-74
2022/03/01 11:24:12;;;;;;;21.20;12.27;;;;;;;;;;5080865;28;20476;-74
2022/03/01 11:26:39;;;;;;;21.50;14.55;;;;;;;;;;5063780;28;20030;-75
2022/03/01 11:29:09;;;;;;;29.92;18.50;;;;;;;;;;5072311;28;20032;-75
2022/03/01 11:31:35;;;;;;;89.60;53.05;;;;;;;;;;5089075;28;20361;-74
2022/03/01 11:34:02;;;;;;;25.83;16.05;;;;;;;;;;5072812;28;20479;-75
2022/03/01 11:36:33;;;;;;;28.80;17.80;;;;;;;;;;5061861;28;20575;-74
2022/03/01 11:39:12;;;;;;;26.25;17.00;;;;;;;;;;5082774;28;20043;-74
2022/03/01 11:42:02;;;;;;;31.17;16.77;;;;;;;;;;5074158;28;20039;-74
2022/03/01 11:44:32;;;;;;;28.25;16.42;;;;;;;;;;5049709;28;20075;-73
2022/03/01 11:46:59;;;;;;;26.85;15.82;;;;;;;;;;5087019;28;20027;-73
2022/03/01 11:49:26;;;;;;;29.45;17.50;;;;;;;;;;5087197;28;20041;-74
2022/03/01 11:51:56;;;;;;;31.30;16.60;;;;;;;;;;5103489;28;20031;-73
2022/03/01 11:54:27;;;;;;;27.85;17.17;;;;;;;;;;5100282;28;20031;-72
2022/03/01 11:56:55;;;;;;;28.15;18.00;;;;;;;;;;5096799;28;20032;-73
2022/03/01 11:59:21;;;;;;;27.77;16.33;;;;;;;;;;5101884;27;20370;-73
2022/03/01 12:01:48;;;;;;;26.83;17.27;;;;;;;;;;5091776;28;20027;-74
2022/03/01 12:04:19;;;;;;;26.92;16.33;;;;;;;;;;5083223;28;20174;-74
2022/03/01 12:06:46;;;;;;;30.02;18.25;;;;;;;;;;5106748;28;20088;-73
2022/03/01 12:09:12;;;;;;;35.35;19.08;;;;;;;;;;5101072;28;20043;-73
2022/03/01 12:11:39;;;;;;;37.65;19.52;;;;;;;;;;5101467;28;20029;-74
2022/03/01 12:14:13;;;;;;;29.70;19.08;;;;;;;;;;5097942;28;20073;-72
2022/03/01 12:16:39;;;;;;;30.52;18.27;;;;;;;;;;5100826;28;20031;-73
2022/03/01 12:19:10;;;;;;;32.70;19.58;;;;;;;;;;5086063;28;20031;-75
2022/03/01 12:21:37;;;;;;;31.35;20.15;;;;;;;;;;5106361;28;20467;-74
2022/03/01 12:24:04;;;;;;;35.03;19.48;;;;;;;;;;5103546;28;20024;-74
2022/03/01 12:26:30;;;;;;;80.70;45.53;;;;;;;;;;5109546;28;20424;-77
2022/03/01 12:29:00;;;;;;;38.70;22.60;;;;;;;;;;5103705;28;20027;-75
2022/03/01 12:31:28;;;;;;;38.10;21.77;;;;;;;;;;5103889;28;20054;-73
2022/03/01 12:33:56;;;;;;;36.92;21.83;;;;;;;;;;5105607;27;20488;-74
2022/03/01 12:36:36;;;;;;;37.58;20.73;;;;;;;;;;5099533;28;20103;-73
2022/03/01 12:39:11;;;;;;;39.53;23.17;;;;;;;;;;5107334;27;20024;-73
2022/03/01 12:41:38;;;;;;;37.65;21.00;;;;;;;;;;5100862;28;20080;-73
2022/03/01 12:44:05;;;;;;;30.55;19.80;;;;;;;;;;5106217;27;20475;-74
2022/03/01 12:46:32;;;;;;;29.65;19.15;;;;;;;;;;5092674;28;20368;-74
2022/03/01 12:48:59;;;;;;;29.90;18.77;;;;;;;;;;5099331;28;20047;-73
2022/03/01 12:51:25;;;;;;;37.72;20.50;;;;;;;;;;5101103;28;20076;-73
2022/03/01 12:53:59;;;;;;;32.65;20.63;;;;;;;;;;5103052;27;20031;-73
2022/03/01 12:56:27;;;;;;;33.38;19.20;;;;;;;;;;5103029;28;20016;-73
2022/03/01 12:58:54;;;;;;;30.88;19.65;;;;;;;;;;5096070;28;20020;-75
2022/03/01 13:01:21;;;;;;;34.05;19.60;;;;;;;;;;5097795;28;20070;-73
2022/03/01 13:03:50;;;;;;;34.15;19.38;;;;;;;;;;5097714;28;20317;-73
2022/03/01 13:06:17;;;;;;;30.42;19.13;;;;;;;;;;5105118;28;20023;-73
2022/03/01 13:08:44;;;;;;;31.33;18.83;;;;;;;;;;5101957;28;20056;-74
2022/03/01 13:11:12;;;;;;;33.38;17.92;;;;;;;;;;5093368;28;20051;-73
2022/03/01 13:13:42;;;;;;;38.33;19.15;;;;;;;;;;5081209;28;20047;-75
2022/03/01 13:16:08;;;;;;;34.92;20.17;;;;;;;;;;5103695;28;20143;-73
2022/03/01 13:18:34;;;;;;;32.78;19.70;;;;;;;;;;5093801;28;20035;-74
2022/03/01 13:21:00;;;;;;;29.52;19.48;;;;;;;;;;5099406;28;20089;-74
2022/03/01 13:23:28;;;;;;;32.67;19.67;;;;;;;;;;5081787;28;20495;-74
2022/03/01 13:25:54;;;;;;;31.33;19.35;;;;;;;;;;5092229;28;20107;-74
2022/03/01 13:28:30;;;;;;;31.75;21.08;;;;;;;;;;5102709;28;20044;-74
2022/03/01 13:30:56;;;;;;;31.90;19.17;;;;;;;;;;5095420;28;20051;-74
2022/03/01 13:33:26;;;;;;;34.22;19.70;;;;;;;;;;5098022;28;20028;-74
2022/03/01 13:35:52;;;;;;;35.03;19.52;;;;;;;;;;5098692;28;20020;-74
2022/03/01 13:38:19;;;;;;;35.90;20.38;;;;;;;;;;5098988;28;20046;-73
2022/03/01 13:40:45;;;;;;;33.65;18.05;;;;;;;;;;5103095;27;20031;-73
2022/03/01 13:43:13;;;;;;;32.60;19.17;;;;;;;;;;5094480;28;20024;-73
2022/03/01 13:45:40;;;;;;;34.30;21.20;;;;;;;;;;5086438;28;20031;-73
2022/03/01 13:48:13;;;;;;;31.88;19.45;;;;;;;;;;5104074;27;20024;-73
2022/03/01 13:50:40;;;;;;;30.33;19.73;;;;;;;;;;5105407;28;20059;-73
2022/03/01 13:53:17;;;;;;;34.40;19.65;;;;;;;;;;5085217;28;20391;-73
2022/03/01 13:55:44;;;;;;;37.70;20.63;;;;;;;;;;5102482;28;20384;-73
2022/03/01 13:58:14;;;;;;;31.88;18.98;;;;;;;;;;5094789;28;20421;-74
2022/03/01 14:00:42;;;;;;;32.33;20.00;;;;;;;;;;5098543;28;20045;-73
2022/03/01 14:03:15;;;;;;;29.63;19.20;;;;;;;;;;5093574;28;20036;-74
2022/03/01 14:05:45;;;;;;;33.88;19.60;;;;;;;;;;5097165;28;20032;-74
2022/03/01 14:08:12;;;;;;;28.95;20.23;;;;;;;;;;5102513;28;20043;-74
2022/03/01 14:10:39;;;;;;;31.92;19.58;;;;;;;;;;5104891;27;20062;-74
2022/03/01 14:13:16;;;;;;;31.77;19.52;;;;;;;;;;5091284;28;20024;-74
2022/03/01 14:15:45;;;;;;;27.77;18.33;;;;;;;;;;5103661;28;20409;-73
2022/03/01 14:18:12;;;;;;;32.10;18.92;;;;;;;;;;5083401;28;20375;-73